createdAt,value
2019-06-07T00:00:51.939Z,99.90
2019-06-07T00:03:27.435Z,99.90
2019-06-07T00:05:52.856Z,99.90
2019-06-07T00:08:27.943Z,99.90
2019-06-07T00:10:53.720Z,99.90
2019-06-07T00:13:23.687Z,99.90
2019-06-07T00:15:53.348Z,99.90
2019-06-07T00:18:25.967Z,99.90
2019-06-07T00:20:54.256Z,99.90
2019-06-07T00:23:23.729Z,99.90
2019-06-07T00:25:53.327Z,99.90
2019-06-07T00:28:23.000Z,99.90
2019-06-07T00:30:52.877Z,99.90
2019-06-07T00:33:24.512Z,99.90
2019-06-07T00:35:53.874Z,99.90
2019-06-07T00:38:23.354Z,99.90
2019-06-07T00:40:52.815Z,99.90
2019-06-07T00:43:27.978Z,99.90
2019-06-07T00:45:53.474Z,99.90
2019-06-07T00:48:31.320Z,99.90
2019-06-07T00:50:54.172Z,99.90
2019-06-07T00:53:31.875Z,99.90
2019-06-07T00:55:54.819Z,99.90
2019-06-07T00:58:27.613Z,99.90
2019-06-07T01:00:55.460Z,99.90
2019-06-07T01:03:25.901Z,99.90
2019-06-07T01:05:55.727Z,99.90
2019-06-07T01:08:29.903Z,99.90
2019-06-07T01:10:56.578Z,99.90
2019-06-07T01:13:26.906Z,99.90
2019-06-07T01:15:56.846Z,99.90
2019-06-07T01:18:37.372Z,99.90
2019-06-07T01:20:57.786Z,99.90
2019-06-07T01:25:58.529Z,99.90
2019-06-07T01:28:30.183Z,99.90
2019-06-07T01:30:59.487Z,99.90
2019-06-07T01:33:49.849Z,99.90
2019-06-07T01:36:00.615Z,99.90
2019-06-07T01:38:30.322Z,99.90
2019-06-07T01:40:59.831Z,99.90
2019-06-07T01:43:31.020Z,99.90
2019-06-07T01:46:00.486Z,99.90
2019-06-07T01:48:48.446Z,99.90
2019-06-07T01:51:01.107Z,99.90
2019-06-07T01:53:31.603Z,99.90
2019-06-07T01:56:01.406Z,99.90
2019-06-07T01:58:30.992Z,99.90
2019-06-07T02:01:00.731Z,99.90
2019-06-07T02:03:33.069Z,99.90
2019-06-07T02:06:01.565Z,99.90
2019-06-07T02:08:34.313Z,99.90
2019-06-07T02:11:02.744Z,99.90
2019-06-07T02:13:32.323Z,99.90
2019-06-07T02:16:01.948Z,99.90
2019-06-07T02:18:34.660Z,99.90
2019-06-07T02:21:02.735Z,99.90
2019-06-07T02:23:33.707Z,99.90
2019-06-07T02:26:03.615Z,99.90
2019-06-07T02:28:44.305Z,99.90
2019-06-07T02:31:04.500Z,99.90
2019-06-07T02:33:39.721Z,99.90
2019-06-07T02:36:05.275Z,99.90
2019-06-07T02:38:37.503Z,99.90
2019-06-07T02:41:06.784Z,99.90
2019-06-07T02:43:37.377Z,99.90
2019-06-07T02:46:25.036Z,99.90
2019-06-07T02:48:42.908Z,99.90
2019-06-07T02:51:12.373Z,99.90
2019-06-07T02:53:41.928Z,99.90
2019-06-07T02:56:37.871Z,99.90
2019-06-07T02:58:43.097Z,99.90
2019-06-07T03:01:12.697Z,99.90
2019-06-07T03:03:42.580Z,99.90
2019-06-07T03:06:14.317Z,99.90
2019-06-07T03:08:46.704Z,99.90
2019-06-07T03:11:17.106Z,99.90
2019-06-07T03:13:48.143Z,99.90
2019-06-07T03:16:36.785Z,99.90
2019-06-07T03:19:06.512Z,99.90
2019-06-07T03:21:41.445Z,99.90
2019-06-07T03:24:09.206Z,99.90
2019-06-07T03:27:30.490Z,99.90
2019-06-07T03:29:10.007Z,99.90
2019-06-07T03:31:45.985Z,99.90
2019-06-07T03:34:10.805Z,99.90
2019-06-07T03:36:40.420Z,99.90
2019-06-07T03:39:09.965Z,99.90
2019-06-07T03:41:50.274Z,99.90
2019-06-07T03:44:10.828Z,99.90
2019-06-07T03:46:41.615Z,99.90
2019-06-07T03:49:11.592Z,99.90
2019-06-07T03:51:41.257Z,99.90
2019-06-07T03:54:10.727Z,99.90
2019-06-07T03:56:41.025Z,99.90
2019-06-07T03:59:10.854Z,99.90
2019-06-07T04:01:41.288Z,99.90
2019-06-07T04:04:11.080Z,99.90
2019-06-07T04:06:42.562Z,99.90
2019-06-07T04:09:12.053Z,99.90
2019-06-07T04:11:41.512Z,99.90
2019-06-07T04:14:11.139Z,99.90
2019-06-07T04:16:44.413Z,99.90
2019-06-07T04:19:11.775Z,99.90
2019-06-07T04:21:42.946Z,99.90
2019-06-07T04:24:13.008Z,99.90
2019-06-07T04:26:43.749Z,99.90
2019-06-07T04:31:44.843Z,99.90
2019-06-07T04:34:14.363Z,99.90
2019-06-07T04:36:58.766Z,99.90
2019-06-07T04:39:17.811Z,99.90
2019-06-07T04:41:49.924Z,99.90
2019-06-07T04:44:21.443Z,99.90
2019-06-07T04:46:51.952Z,99.90
2019-06-07T04:49:22.982Z,99.90
2019-06-07T04:51:53.284Z,99.90
2019-06-07T04:54:22.749Z,97.00
2019-06-07T04:56:52.575Z,93.10
2019-06-07T05:00:01.038Z,88.60
2019-06-07T05:01:53.237Z,80.20
2019-06-07T05:04:22.687Z,74.30
2019-06-07T05:06:52.161Z,67.40
2019-06-07T05:09:21.619Z,62.20
2019-06-07T05:11:51.226Z,58.20
2019-06-07T05:14:20.676Z,55.20
2019-06-07T05:16:50.148Z,52.60
2019-06-07T05:19:19.599Z,51.40
2019-06-07T05:22:03.478Z,49.60
2019-06-07T05:24:20.505Z,48.50
2019-06-07T05:26:50.005Z,46.50
2019-06-07T05:29:19.610Z,45.10
2019-06-07T05:31:49.345Z,43.90
2019-06-07T05:34:18.871Z,41.90
2019-06-07T05:37:10.588Z,40.80
2019-06-07T05:39:19.804Z,40.80
2019-06-07T05:41:49.271Z,40.90
2019-06-07T05:44:18.725Z,39.70
2019-06-07T05:46:48.184Z,39.10
2019-06-07T05:49:17.639Z,37.40
2019-06-07T05:51:47.175Z,37.60
2019-06-07T05:54:16.637Z,36.60
2019-06-07T05:56:46.206Z,36.40
2019-06-07T05:59:15.669Z,35.70
2019-06-07T06:01:55.959Z,35.70
2019-06-07T06:04:16.373Z,35.10
2019-06-07T06:06:47.295Z,34.40
2019-06-07T06:09:17.260Z,34.00
2019-06-07T06:11:59.649Z,32.70
2019-06-07T06:14:17.967Z,31.70
2019-06-07T06:16:49.879Z,31.40
2019-06-07T06:19:18.632Z,32.70
2019-06-07T06:21:48.723Z,35.30
2019-06-07T06:24:18.324Z,37.10
2019-06-07T06:26:52.246Z,36.80
2019-06-07T06:29:18.947Z,36.20
2019-06-07T06:32:35.485Z,35.40
2019-06-07T06:34:19.576Z,35.60
2019-06-07T06:36:50.257Z,35.60
2019-06-07T06:39:20.113Z,35.30
2019-06-07T06:42:00.834Z,34.50
2019-06-07T06:44:21.080Z,33.90
2019-06-07T06:46:57.528Z,31.20
2019-06-07T06:49:21.712Z,31.20
2019-06-07T06:51:53.596Z,30.00
2019-06-07T06:54:39.546Z,30.10
2019-06-07T06:56:53.633Z,30.50
2019-06-07T06:59:40.031Z,30.30
2019-06-07T07:01:54.281Z,30.00
2019-06-07T07:04:23.764Z,31.30
2019-06-07T07:06:55.331Z,31.80
2019-06-07T07:09:26.042Z,32.60
2019-06-07T07:12:10.973Z,32.90
2019-06-07T07:14:26.756Z,32.30
2019-06-07T07:16:56.807Z,31.50
2019-06-07T07:19:26.594Z,31.30
2019-06-07T07:21:56.056Z,33.80
2019-06-07T07:24:25.613Z,35.70
2019-06-07T07:26:58.234Z,36.70
2019-06-07T07:29:26.280Z,36.00
2019-06-07T07:31:56.548Z,36.90
2019-06-07T07:34:36.351Z,39.40
2019-06-07T07:36:59.542Z,40.10
2019-06-07T07:39:28.757Z,40.90
2019-06-07T07:42:17.886Z,40.80
2019-06-07T07:44:29.419Z,38.20
2019-06-07T07:46:59.163Z,35.50
2019-06-07T07:49:28.651Z,34.20
2019-06-07T07:51:59.138Z,32.40
2019-06-07T07:54:28.905Z,31.60
2019-06-07T07:56:58.372Z,30.60
2019-06-07T07:59:41.954Z,30.70
2019-06-07T08:01:59.058Z,31.10
2019-06-07T08:05:12.114Z,34.20
2019-06-07T08:07:00.126Z,35.90
2019-06-07T08:09:29.604Z,35.90
2019-06-07T08:12:00.768Z,37.60
2019-06-07T08:14:30.358Z,37.50
2019-06-07T08:16:59.843Z,38.20
2019-06-07T08:19:29.324Z,38.30
2019-06-07T08:22:01.688Z,37.60
2019-06-07T08:24:30.139Z,35.50
2019-06-07T08:27:24.631Z,35.00
2019-06-07T08:29:44.475Z,35.70
2019-06-07T08:32:02.225Z,35.70
2019-06-07T08:34:31.757Z,37.00
2019-06-07T08:37:02.029Z,38.90
2019-06-07T08:39:31.705Z,38.90
2019-06-07T08:42:15.291Z,37.00
2019-06-07T08:44:32.424Z,36.30
2019-06-07T08:47:18.915Z,35.90
2019-06-07T08:49:33.068Z,36.00
2019-06-07T08:52:09.955Z,35.70
2019-06-07T08:54:33.924Z,35.10
2019-06-07T08:57:19.616Z,35.70
2019-06-07T08:59:34.885Z,36.20
2019-06-07T09:02:22.524Z,36.70
2019-06-07T09:04:35.709Z,37.80
2019-06-07T09:07:18.821Z,37.70
2019-06-07T09:09:36.713Z,37.90
2019-06-07T09:12:10.919Z,39.50
2019-06-07T09:14:59.103Z,40.50
2019-06-07T09:17:12.334Z,41.20
2019-06-07T09:19:40.447Z,41.30
2019-06-07T09:22:11.420Z,42.10
2019-06-07T09:24:41.418Z,42.70
2019-06-07T09:27:11.357Z,41.60
2019-06-07T09:29:41.284Z,42.00
2019-06-07T09:32:15.976Z,41.40
2019-06-07T09:34:41.933Z,41.20
2019-06-07T09:38:02.772Z,41.00
2019-06-07T09:39:42.925Z,41.10
2019-06-07T09:42:12.926Z,41.90
2019-06-07T09:44:42.646Z,41.90
2019-06-07T09:47:29.895Z,42.30
2019-06-07T09:49:43.426Z,43.10
2019-06-07T09:52:12.970Z,44.90
2019-06-07T09:55:04.372Z,46.30
2019-06-07T09:57:17.352Z,47.10
2019-06-07T09:59:46.805Z,48.10
2019-06-07T10:02:17.436Z,48.20
2019-06-07T10:04:46.900Z,48.70
2019-06-07T10:07:30.893Z,49.50
2019-06-07T10:12:19.280Z,49.50
2019-06-07T10:14:48.750Z,49.20
2019-06-07T10:17:18.389Z,49.60
2019-06-07T10:19:47.984Z,50.30
2019-06-07T10:22:17.454Z,50.70
2019-06-07T10:24:47.001Z,50.70
2019-06-07T10:27:16.471Z,51.00
2019-06-07T10:29:46.191Z,51.30
2019-06-07T10:32:15.651Z,51.10
2019-06-07T10:34:45.240Z,51.50
2019-06-07T10:37:15.763Z,52.60
2019-06-07T10:39:49.193Z,52.10
2019-06-07T10:42:16.818Z,52.40
2019-06-07T10:44:46.337Z,52.70
2019-06-07T10:47:15.800Z,53.10
2019-06-07T10:49:45.285Z,54.10
2019-06-07T10:52:14.781Z,54.10
2019-06-07T10:54:44.294Z,54.20
2019-06-07T10:57:16.032Z,55.00
2019-06-07T10:59:44.933Z,54.70
2019-06-07T11:02:14.412Z,54.90
2019-06-07T11:04:44.234Z,54.30
2019-06-07T11:07:14.548Z,53.70
2019-06-07T11:09:44.186Z,54.40
2019-06-07T11:12:15.308Z,54.50
2019-06-07T11:14:44.956Z,55.50
2019-06-07T11:17:15.717Z,55.60
2019-06-07T11:19:45.569Z,55.10
2019-06-07T11:22:15.141Z,54.50
2019-06-07T11:24:44.751Z,54.80
2019-06-07T11:27:16.289Z,55.50
2019-06-07T11:29:45.584Z,56.10
2019-06-07T11:32:15.451Z,56.80
2019-06-07T11:34:44.931Z,57.00
2019-06-07T11:37:16.183Z,57.60
2019-06-07T11:39:45.577Z,58.00
2019-06-07T11:42:15.051Z,57.60
2019-06-07T11:44:56.269Z,57.50
2019-06-07T11:47:15.933Z,56.80
2019-06-07T11:49:45.384Z,57.70
2019-06-07T11:52:15.770Z,58.20
2019-06-07T11:54:48.038Z,58.60
2019-06-07T11:57:17.319Z,59.20
2019-06-07T11:59:46.953Z,59.60
2019-06-07T12:02:17.617Z,60.30
2019-06-07T12:04:47.263Z,60.70
2019-06-07T12:07:17.658Z,60.20
2019-06-07T12:09:56.268Z,61.80
2019-06-07T12:12:20.456Z,61.60
2019-06-07T12:14:50.307Z,62.30
2019-06-07T12:17:19.860Z,61.50
2019-06-07T12:19:49.316Z,61.70
2019-06-07T12:22:20.067Z,63.30
2019-06-07T12:24:50.111Z,63.90
2019-06-07T12:27:20.742Z,63.50
2019-06-07T12:29:50.420Z,63.70
2019-06-07T12:32:21.440Z,64.20
2019-06-07T12:34:51.107Z,64.80
2019-06-07T12:37:23.909Z,65.90
2019-06-07T12:39:51.752Z,65.60
2019-06-07T12:42:22.635Z,66.00
2019-06-07T12:44:52.700Z,65.60
2019-06-07T12:47:23.241Z,67.10
2019-06-07T12:49:52.868Z,68.80
2019-06-07T12:52:23.426Z,69.90
2019-06-07T12:54:53.850Z,70.80
2019-06-07T12:57:24.175Z,71.30
2019-06-07T12:59:53.907Z,71.50
2019-06-07T13:02:24.077Z,71.80
2019-06-07T13:04:54.725Z,72.30
2019-06-07T13:07:24.380Z,74.10
2019-06-07T13:09:54.067Z,74.90
2019-06-07T13:12:23.799Z,75.70
2019-06-07T13:14:53.522Z,76.20
2019-06-07T13:17:24.175Z,77.20
2019-06-07T13:19:53.954Z,77.00
2019-06-07T13:22:24.420Z,78.10
2019-06-07T13:24:54.206Z,79.30
2019-06-07T13:27:24.528Z,79.10
2019-06-07T13:29:54.200Z,79.50
2019-06-07T13:32:23.937Z,78.30
2019-06-07T13:34:53.639Z,80.30
2019-06-07T13:37:23.456Z,80.30
2019-06-07T13:39:53.169Z,79.80
2019-06-07T13:42:22.894Z,80.60
2019-06-07T13:44:52.599Z,81.50
2019-06-07T13:47:23.124Z,82.00
2019-06-07T13:49:55.296Z,81.40
2019-06-07T13:52:24.260Z,83.40
2019-06-07T13:54:53.763Z,86.00
2019-06-07T13:57:24.374Z,87.20
2019-06-07T13:59:53.963Z,87.70
2019-06-07T14:02:25.663Z,88.40
2019-06-07T14:04:54.872Z,89.30
2019-06-07T14:07:26.377Z,88.00
2019-06-07T14:09:55.623Z,88.00
2019-06-07T14:12:26.197Z,88.60
2019-06-07T14:14:55.861Z,89.40
2019-06-07T14:17:25.385Z,90.00
2019-06-07T14:19:54.876Z,90.20
2019-06-07T14:22:24.825Z,90.30
2019-06-07T14:24:54.485Z,90.80
2019-06-07T14:27:25.380Z,91.10
2019-06-07T14:29:55.167Z,91.40
2019-06-07T14:32:26.492Z,91.60
2019-06-07T14:34:56.748Z,91.70
2019-06-07T14:37:26.846Z,91.00
2019-06-07T14:39:56.531Z,90.80
2019-06-07T14:42:27.110Z,90.90
2019-06-07T14:44:56.980Z,91.30
2019-06-07T14:47:27.851Z,91.70
2019-06-07T14:49:57.741Z,91.70
2019-06-07T14:52:28.384Z,91.40
2019-06-07T14:54:58.256Z,91.50
2019-06-07T14:57:29.027Z,91.80
2019-06-07T14:59:58.662Z,91.50
2019-06-07T15:02:28.426Z,92.00
2019-06-07T15:04:58.508Z,92.50
2019-06-07T15:07:28.699Z,92.80
2019-06-07T15:09:58.389Z,93.00
2019-06-07T15:12:29.220Z,92.80
2019-06-07T15:14:58.903Z,91.90
2019-06-07T15:17:28.664Z,90.60
2019-06-07T15:19:58.498Z,91.20
2019-06-07T15:22:28.169Z,91.90
2019-06-07T15:24:57.641Z,92.50
2019-06-07T15:27:27.262Z,92.60
2019-06-07T15:29:56.871Z,92.50
2019-06-07T15:32:28.115Z,92.70
2019-06-07T15:34:57.802Z,92.70
2019-06-07T15:37:28.368Z,93.10
2019-06-07T15:39:58.383Z,93.60
2019-06-07T15:42:42.705Z,93.40
2019-06-07T15:44:59.407Z,93.70
2019-06-07T15:47:29.575Z,93.90
2019-06-07T15:49:59.144Z,93.90
2019-06-07T15:52:28.744Z,93.40
2019-06-07T15:54:58.207Z,93.30
2019-06-07T15:57:27.701Z,93.60
2019-06-07T15:59:57.255Z,94.20
2019-06-07T16:02:26.732Z,94.90
2019-06-07T16:04:56.211Z,95.40
2019-06-07T16:07:25.688Z,95.70
2019-06-07T16:09:55.157Z,95.70
2019-06-07T16:12:24.842Z,95.90
2019-06-07T16:14:54.365Z,95.70
2019-06-07T16:17:23.847Z,95.80
2019-06-07T16:19:53.356Z,95.70
2019-06-07T16:22:22.835Z,96.30
2019-06-07T16:24:53.081Z,96.30
2019-06-07T16:27:22.731Z,95.80
2019-06-07T16:29:52.200Z,96.00
2019-06-07T16:32:21.680Z,96.50
2019-06-07T16:34:51.148Z,96.90
2019-06-07T16:37:20.635Z,97.40
2019-06-07T16:39:50.096Z,97.60
2019-06-07T16:42:19.576Z,97.80
2019-06-07T16:44:49.049Z,98.20
2019-06-07T16:47:18.606Z,98.40
2019-06-07T16:49:49.215Z,98.60
2019-06-07T16:52:18.837Z,98.80
2019-06-07T16:54:48.300Z,98.60
2019-06-07T16:57:18.081Z,98.70
2019-06-07T16:59:49.207Z,98.70
2019-06-07T17:02:19.156Z,98.50
2019-06-07T17:04:48.957Z,98.80
2019-06-07T17:07:18.431Z,99.00
2019-06-07T17:09:49.433Z,99.40
2019-06-07T17:12:19.224Z,99.90
2019-06-07T17:14:48.783Z,99.90
2019-06-07T17:17:18.361Z,99.90
2019-06-07T17:19:49.089Z,99.90
2019-06-07T17:22:19.097Z,99.90
2019-06-07T17:24:49.839Z,99.90
2019-06-07T17:27:19.748Z,99.90
2019-06-07T17:29:50.092Z,99.90
2019-06-07T17:32:19.797Z,99.90
2019-06-07T17:34:50.297Z,99.90
2019-06-07T17:37:20.021Z,99.90
2019-06-07T17:39:50.825Z,99.90
2019-06-07T17:42:20.498Z,99.90
2019-06-07T17:44:51.346Z,99.90
2019-06-07T17:47:21.093Z,99.90
2019-06-07T17:49:52.012Z,99.90
2019-06-07T17:52:21.950Z,99.90
2019-06-07T17:54:52.389Z,99.90
2019-06-07T17:57:22.074Z,99.90
2019-06-07T17:59:52.613Z,99.90
2019-06-07T18:02:22.782Z,99.90
2019-06-07T18:04:53.548Z,99.90
2019-06-07T18:07:24.660Z,99.90
2019-06-07T18:09:55.449Z,99.90
2019-06-07T18:12:25.067Z,99.90
2019-06-07T18:14:54.556Z,99.90
2019-06-07T18:17:34.083Z,99.90
2019-06-07T18:19:55.304Z,99.90
2019-06-07T18:22:24.892Z,99.90
2019-06-07T18:25:06.574Z,99.90
2019-06-07T18:27:36.097Z,99.90
2019-06-07T18:30:11.670Z,99.90
2019-06-07T18:32:41.179Z,99.90
2019-06-07T18:35:12.262Z,99.90
2019-06-07T18:37:41.792Z,99.90
2019-06-07T18:40:11.422Z,99.90
2019-06-07T18:42:41.114Z,99.90
2019-06-07T18:45:10.584Z,99.90
2019-06-07T18:47:40.136Z,99.90
2019-06-07T18:50:10.752Z,99.90
2019-06-07T18:52:41.985Z,99.90
2019-06-07T18:55:12.209Z,99.90
2019-06-07T18:57:41.739Z,99.90
2019-06-07T19:00:16.412Z,99.90
2019-06-07T19:02:47.438Z,99.90
2019-06-07T19:05:17.335Z,99.90
2019-06-07T19:07:48.296Z,99.90
2019-06-07T19:10:20.513Z,99.90
2019-06-07T19:12:50.936Z,99.90
2019-06-07T19:15:21.539Z,99.90
2019-06-07T19:17:52.119Z,99.90
2019-06-07T19:20:22.981Z,99.90
2019-06-07T19:22:52.583Z,99.90
2019-06-07T19:25:22.266Z,99.90
2019-06-07T19:27:52.722Z,99.90
2019-06-07T19:30:22.493Z,99.90
2019-06-07T19:32:53.138Z,99.90
2019-06-07T19:35:23.142Z,99.90
2019-06-07T19:37:53.785Z,99.90
2019-06-07T19:40:23.676Z,99.90
2019-06-07T19:42:54.087Z,99.90
2019-06-07T19:45:30.376Z,99.90
2019-06-07T19:47:56.441Z,99.90
2019-06-07T19:50:26.308Z,99.90
2019-06-07T19:52:57.050Z,99.90
2019-06-07T19:55:26.893Z,99.90
2019-06-07T19:57:57.508Z,99.90
2019-06-07T20:00:27.572Z,99.90
2019-06-07T20:02:57.812Z,99.90
2019-06-07T20:05:27.787Z,99.90
2019-06-07T20:07:58.484Z,99.90
2019-06-07T20:10:28.327Z,99.90
2019-06-07T20:12:58.656Z,99.90
2019-06-07T20:15:29.709Z,99.90
2019-06-07T20:17:59.423Z,99.90
2019-06-07T20:20:30.051Z,99.90
2019-06-07T20:23:00.946Z,99.90
2019-06-07T20:25:30.898Z,99.90
2019-06-07T20:28:01.398Z,99.90
2019-06-07T20:30:31.262Z,99.90
2019-06-07T20:33:01.825Z,99.90
2019-06-07T20:35:31.617Z,99.90
2019-06-07T20:38:01.559Z,99.90
2019-06-07T20:40:31.332Z,99.90
2019-06-07T20:43:01.484Z,99.90
2019-06-07T20:45:33.997Z,99.90
2019-06-07T20:48:04.065Z,99.90
2019-06-07T20:50:33.783Z,99.90
2019-06-07T20:53:03.694Z,99.90
2019-06-07T20:55:34.463Z,99.90
2019-06-07T20:58:05.438Z,99.90
2019-06-07T21:00:35.253Z,99.90
2019-06-07T21:03:05.316Z,99.90
2019-06-07T21:05:35.040Z,99.90
2019-06-07T21:08:08.119Z,99.90
2019-06-07T21:10:35.847Z,99.90
2019-06-07T21:13:05.887Z,99.90
2019-06-07T21:15:47.850Z,99.90
2019-06-07T21:18:16.276Z,99.90
2019-06-07T21:20:37.844Z,99.90
2019-06-07T21:23:07.324Z,99.90
2019-06-07T21:25:36.784Z,99.90
2019-06-07T21:28:07.237Z,99.90
2019-06-07T21:30:36.803Z,99.90
2019-06-07T21:33:07.542Z,99.90
2019-06-07T21:35:37.181Z,99.90
2019-06-07T21:38:07.769Z,99.90
2019-06-07T21:40:37.320Z,99.90
2019-06-07T21:43:08.620Z,99.90
2019-06-07T21:45:38.336Z,99.90
2019-06-07T21:48:08.822Z,99.90
2019-06-07T21:50:38.460Z,99.90
2019-06-07T21:53:08.595Z,99.90
2019-06-07T21:55:38.193Z,99.90
2019-06-07T21:58:09.013Z,99.90
2019-06-07T22:01:04.351Z,99.90
2019-06-07T22:03:34.065Z,99.90
2019-06-07T22:06:03.612Z,99.90
2019-06-07T22:08:33.323Z,99.90
2019-06-07T22:11:03.794Z,99.90
2019-06-07T22:13:33.701Z,99.90
2019-06-07T22:16:04.059Z,99.90
2019-06-07T22:18:33.647Z,99.90
2019-06-07T22:21:04.310Z,99.90
2019-06-07T22:23:33.921Z,99.90
2019-06-07T22:26:03.376Z,99.90
2019-06-07T22:28:32.848Z,99.90
2019-06-07T22:31:02.306Z,99.90
2019-06-07T22:33:31.852Z,99.90
2019-06-07T22:36:01.312Z,99.90
2019-06-07T22:38:30.850Z,99.90
2019-06-07T22:41:00.548Z,99.90
2019-06-07T22:43:30.107Z,99.90
2019-06-07T22:45:59.575Z,99.90
2019-06-07T22:48:29.106Z,99.90
2019-06-07T22:51:00.211Z,99.90
2019-06-07T22:53:29.844Z,99.90
2019-06-07T22:56:00.937Z,99.90
2019-06-07T22:58:30.775Z,99.90
2019-06-07T23:01:00.624Z,99.90
2019-06-07T23:03:30.096Z,99.90
2019-06-07T23:05:59.638Z,99.90
2019-06-07T23:08:29.315Z,99.90
2019-06-07T23:10:58.884Z,99.90
2019-06-07T23:13:28.352Z,99.90
2019-06-07T23:15:57.873Z,99.90
2019-06-07T23:18:27.345Z,99.90
2019-06-07T23:20:56.792Z,99.90
2019-06-07T23:23:26.585Z,99.90
2019-06-07T23:25:56.039Z,99.90
2019-06-07T23:28:25.584Z,99.90
2019-06-07T23:30:55.163Z,99.90
2019-06-07T23:33:24.777Z,99.90
2019-06-07T23:35:54.397Z,99.90
2019-06-07T23:38:24.017Z,99.90
2019-06-07T23:40:53.473Z,99.90
2019-06-07T23:43:22.953Z,99.90
2019-06-07T23:45:52.411Z,99.90
2019-06-07T23:48:21.867Z,99.90
2019-06-07T23:50:51.328Z,99.90
2019-06-07T23:53:22.050Z,99.90
2019-06-07T23:55:51.860Z,99.90
2019-06-07T23:58:22.246Z,99.90
